sensor_id;sensor_type;location;lat;lon;timestamp;P1;durP1;ratioP1;P2;durP2;ratioP2
51491;SDS011;37569;50.548;8.778;2023-07-22T00:01:46;6.5;;;5.3;;
51491;SDS011;37569;50.548;8.778;2023-07-22T00:06:46;7.5;;;5.5;;
51491;SDS011;37569;50.548;8.778;2023-07-22T00:11:49;5.7;;;5.2;;
51491;SDS011;37569;50.548;8.778;2023-07-22T00:16:48;6.5;;;5.8;;
51491;SDS011;37569;50.548;8.778;2023-07-22T00:21:48;7.1;;;6.4;;
51491;SDS011;37569;50.548;8.778;2023-07-22T00:26:49;8;;;6.5;;
51491;SDS011;37569;50.548;8.778;2023-07-22T00:31:49;8.7;;;7.1;;
51491;SDS011;37569;50.548;8.778;2023-07-22T00:36:50;8.6;;;7.4;;
51491;SDS011;37569;50.548;8.778;2023-07-22T00:41:51;8.7;;;7.8;;
51491;SDS011;37569;50.548;8.778;2023-07-22T00:46:52;8.8;;;7.7;;
51491;SDS011;37569;50.548;8.778;2023-07-22T00:51:52;8.6;;;7.1;;
51491;SDS011;37569;50.548;8.778;2023-07-22T00:56:52;7.6;;;6.8;;
51491;SDS011;37569;50.548;8.778;2023-07-22T01:01:53;9.2;;;6.6;;
51491;SDS011;37569;50.548;8.778;2023-07-22T01:06:54;8.1;;;7.2;;
51491;SDS011;37569;50.548;8.778;2023-07-22T01:11:54;8;;;6.6;;
51491;SDS011;37569;50.548;8.778;2023-07-22T01:16:55;7.2;;;6.1;;
51491;SDS011;37569;50.548;8.778;2023-07-22T01:21:56;7.7;;;5.9;;
51491;SDS011;37569;50.548;8.778;2023-07-22T01:26:56;6.7;;;6.1;;
51491;SDS011;37569;50.548;8.778;2023-07-22T01:31:57;7.1;;;6.3;;
51491;SDS011;37569;50.548;8.778;2023-07-22T01:36:57;7.3;;;5.9;;
51491;SDS011;37569;50.548;8.778;2023-07-22T01:41:58;7.1;;;5.9;;
51491;SDS011;37569;50.548;8.778;2023-07-22T01:47:01;6.7;;;5.7;;
51491;SDS011;37569;50.548;8.778;2023-07-22T01:51:59;6;;;5.4;;
51491;SDS011;37569;50.548;8.778;2023-07-22T01:56:59;6.6;;;5.6;;
51491;SDS011;37569;50.548;8.778;2023-07-22T02:02:00;7.9;;;5.9;;
51491;SDS011;37569;50.548;8.778;2023-07-22T02:07:00;7.4;;;6.1;;
51491;SDS011;37569;50.548;8.778;2023-07-22T02:12:01;8.8;;;5.8;;
51491;SDS011;37569;50.548;8.778;2023-07-22T02:17:01;6.3;;;5.7;;
51491;SDS011;37569;50.548;8.778;2023-07-22T02:22:02;6.8;;;6.1;;
51491;SDS011;37569;50.548;8.778;2023-07-22T02:27:03;6.7;;;6;;
51491;SDS011;37569;50.548;8.778;2023-07-22T02:32:03;8.3;;;6.5;;
51491;SDS011;37569;50.548;8.778;2023-07-22T02:37:04;7.5;;;6.7;;
51491;SDS011;37569;50.548;8.778;2023-07-22T02:42:04;8.9;;;7.3;;
51491;SDS011;37569;50.548;8.778;2023-07-22T02:47:05;9.3;;;7.7;;
51491;SDS011;37569;50.548;8.778;2023-07-22T02:52:05;9.6;;;7.5;;
51491;SDS011;37569;50.548;8.778;2023-07-22T02:57:06;7.8;;;6.6;;
51491;SDS011;37569;50.548;8.778;2023-07-22T03:02:06;8.2;;;6.9;;
51491;SDS011;37569;50.548;8.778;2023-07-22T03:07:07;8.6;;;7;;
51491;SDS011;37569;50.548;8.778;2023-07-22T03:12:08;7.8;;;7;;
51491;SDS011;37569;50.548;8.778;2023-07-22T03:17:08;8.5;;;7.6;;
51491;SDS011;37569;50.548;8.778;2023-07-22T03:22:08;8.4;;;7.5;;
51491;SDS011;37569;50.548;8.778;2023-07-22T03:27:09;9;;;7.7;;
51491;SDS011;37569;50.548;8.778;2023-07-22T03:32:09;7.7;;;7;;
51491;SDS011;37569;50.548;8.778;2023-07-22T03:37:10;9.3;;;7.2;;
51491;SDS011;37569;50.548;8.778;2023-07-22T03:42:10;9.5;;;7.8;;
51491;SDS011;37569;50.548;8.778;2023-07-22T03:47:11;9.5;;;8.4;;
51491;SDS011;37569;50.548;8.778;2023-07-22T03:52:11;8.5;;;7.4;;
51491;SDS011;37569;50.548;8.778;2023-07-22T03:57:12;9.4;;;8;;
51491;SDS011;37569;50.548;8.778;2023-07-22T04:02:12;7.8;;;7;;
51491;SDS011;37569;50.548;8.778;2023-07-22T04:07:13;7.8;;;7;;
51491;SDS011;37569;50.548;8.778;2023-07-22T04:12:13;7.1;;;6.4;;
51491;SDS011;37569;50.548;8.778;2023-07-22T04:17:14;7.4;;;6.6;;
51491;SDS011;37569;50.548;8.778;2023-07-22T04:22:14;7.5;;;6.8;;
51491;SDS011;37569;50.548;8.778;2023-07-22T04:27:15;8.8;;;6.9;;
51491;SDS011;37569;50.548;8.778;2023-07-22T04:32:15;8.5;;;6.7;;
51491;SDS011;37569;50.548;8.778;2023-07-22T04:37:16;8.5;;;7.1;;
51491;SDS011;37569;50.548;8.778;2023-07-22T04:42:16;8.1;;;6.9;;
51491;SDS011;37569;50.548;8.778;2023-07-22T04:47:17;7.2;;;6.2;;
51491;SDS011;37569;50.548;8.778;2023-07-22T04:52:17;7.7;;;6.9;;
51491;SDS011;37569;50.548;8.778;2023-07-22T04:57:18;8.1;;;7.1;;
51491;SDS011;37569;50.548;8.778;2023-07-22T05:02:18;10.9;;;7.8;;
51491;SDS011;37569;50.548;8.778;2023-07-22T05:07:19;8.5;;;7.4;;
51491;SDS011;37569;50.548;8.778;2023-07-22T05:12:20;9.1;;;8;;
51491;SDS011;37569;50.548;8.778;2023-07-22T05:17:20;8.2;;;7.4;;
51491;SDS011;37569;50.548;8.778;2023-07-22T05:22:21;9.5;;;8.1;;
51491;SDS011;37569;50.548;8.778;2023-07-22T05:27:22;10.2;;;8.2;;
51491;SDS011;37569;50.548;8.778;2023-07-22T05:32:22;9.5;;;7.6;;
51491;SDS011;37569;50.548;8.778;2023-07-22T05:37:23;9.4;;;8.4;;
51491;SDS011;37569;50.548;8.778;2023-07-22T05:42:23;9.1;;;6.8;;
51491;SDS011;37569;50.548;8.778;2023-07-22T05:47:24;7.3;;;5.8;;
51491;SDS011;37569;50.548;8.778;2023-07-22T05:52:25;6.6;;;5.9;;
51491;SDS011;37569;50.548;8.778;2023-07-22T05:57:26;8.3;;;5.7;;
51491;SDS011;37569;50.548;8.778;2023-07-22T06:02:26;7.3;;;5.3;;
51491;SDS011;37569;50.548;8.778;2023-07-22T06:07:27;9.6;;;5.4;;
51491;SDS011;37569;50.548;8.778;2023-07-22T06:12:28;7.1;;;5;;
51491;SDS011;37569;50.548;8.778;2023-07-22T06:17:29;5.9;;;4.6;;
51491;SDS011;37569;50.548;8.778;2023-07-22T06:22:29;6.7;;;5.1;;
51491;SDS011;37569;50.548;8.778;2023-07-22T06:27:30;5.5;;;4.8;;
51491;SDS011;37569;50.548;8.778;2023-07-22T06:32:31;6.6;;;5.1;;
51491;SDS011;37569;50.548;8.778;2023-07-22T06:37:32;5.4;;;4.8;;
51491;SDS011;37569;50.548;8.778;2023-07-22T06:42:33;5.3;;;4.5;;
51491;SDS011;37569;50.548;8.778;2023-07-22T06:47:34;5.8;;;5.1;;
51491;SDS011;37569;50.548;8.778;2023-07-22T06:52:35;7.9;;;5.5;;
51491;SDS011;37569;50.548;8.778;2023-07-22T06:57:36;5.3;;;4.8;;
51491;SDS011;37569;50.548;8.778;2023-07-22T07:02:37;7.9;;;5.3;;
51491;SDS011;37569;50.548;8.778;2023-07-22T07:07:38;7.5;;;4.9;;
51491;SDS011;37569;50.548;8.778;2023-07-22T07:12:39;6.2;;;5.3;;
51491;SDS011;37569;50.548;8.778;2023-07-22T07:17:40;8.8;;;5.6;;
51491;SDS011;37569;50.548;8.778;2023-07-22T07:22:41;10.4;;;6;;
51491;SDS011;37569;50.548;8.778;2023-07-22T07:27:42;7.2;;;5.9;;
51491;SDS011;37569;50.548;8.778;2023-07-22T07:32:43;7.7;;;5.5;;
51491;SDS011;37569;50.548;8.778;2023-07-22T07:37:44;6.7;;;5;;
51491;SDS011;37569;50.548;8.778;2023-07-22T07:42:45;7.2;;;5.5;;
51491;SDS011;37569;50.548;8.778;2023-07-22T07:47:46;6.1;;;5.5;;
51491;SDS011;37569;50.548;8.778;2023-07-22T07:52:47;6;;;5.4;;
51491;SDS011;37569;50.548;8.778;2023-07-22T07:57:49;6.3;;;5.1;;
51491;SDS011;37569;50.548;8.778;2023-07-22T08:02:50;7.6;;;5.4;;
51491;SDS011;37569;50.548;8.778;2023-07-22T08:07:51;7.9;;;5.6;;
51491;SDS011;37569;50.548;8.778;2023-07-22T08:12:52;6.5;;;5.4;;
51491;SDS011;37569;50.548;8.778;2023-07-22T08:17:53;6.1;;;5.5;;
51491;SDS011;37569;50.548;8.778;2023-07-22T08:22:54;6.3;;;4.8;;
51491;SDS011;37569;50.548;8.778;2023-07-22T08:27:55;6.9;;;5.5;;
51491;SDS011;37569;50.548;8.778;2023-07-22T08:32:56;6.7;;;5.6;;
51491;SDS011;37569;50.548;8.778;2023-07-22T08:37:57;6.4;;;5.6;;
51491;SDS011;37569;50.548;8.778;2023-07-22T08:42:59;7.3;;;5.4;;
51491;SDS011;37569;50.548;8.778;2023-07-22T08:48:00;6.5;;;5.3;;
51491;SDS011;37569;50.548;8.778;2023-07-22T08:53:01;6.5;;;5.4;;
51491;SDS011;37569;50.548;8.778;2023-07-22T08:58:02;7;;;5.1;;
51491;SDS011;37569;50.548;8.778;2023-07-22T09:03:03;7.7;;;5;;
51491;SDS011;37569;50.548;8.778;2023-07-22T09:08:05;7.3;;;5.2;;
51491;SDS011;37569;50.548;8.778;2023-07-22T09:13:05;4.9;;;4.4;;
51491;SDS011;37569;50.548;8.778;2023-07-22T09:18:06;6.2;;;4.4;;
51491;SDS011;37569;50.548;8.778;2023-07-22T09:23:08;6;;;4.5;;
51491;SDS011;37569;50.548;8.778;2023-07-22T09:28:09;5.6;;;4.3;;
51491;SDS011;37569;50.548;8.778;2023-07-22T09:33:19;5.4;;;4.4;;
51491;SDS011;37569;50.548;8.778;2023-07-22T09:38:11;6.5;;;4.4;;
51491;SDS011;37569;50.548;8.778;2023-07-22T09:43:12;5;;;4.5;;
51491;SDS011;37569;50.548;8.778;2023-07-22T09:48:13;4.6;;;4.2;;
51491;SDS011;37569;50.548;8.778;2023-07-22T09:53:15;4.9;;;4;;
51491;SDS011;37569;50.548;8.778;2023-07-22T09:58:15;4.5;;;3.8;;
51491;SDS011;37569;50.548;8.778;2023-07-22T10:03:17;5.7;;;4.4;;
51491;SDS011;37569;50.548;8.778;2023-07-22T10:08:18;5.3;;;4;;
51491;SDS011;37569;50.548;8.778;2023-07-22T10:13:19;5.2;;;4.1;;
51491;SDS011;37569;50.548;8.778;2023-07-22T10:18:20;5.4;;;4.2;;
51491;SDS011;37569;50.548;8.778;2023-07-22T10:23:22;4.2;;;3.8;;
51491;SDS011;37569;50.548;8.778;2023-07-22T10:28:23;4.5;;;4;;
51491;SDS011;37569;50.548;8.778;2023-07-22T10:33:24;5.8;;;4.2;;
51491;SDS011;37569;50.548;8.778;2023-07-22T10:38:25;4.8;;;4;;
51491;SDS011;37569;50.548;8.778;2023-07-22T10:43:26;5.5;;;4.4;;
51491;SDS011;37569;50.548;8.778;2023-07-22T10:48:29;8;;;4.4;;
51491;SDS011;37569;50.548;8.778;2023-07-22T10:53:29;4.7;;;4;;
51491;SDS011;37569;50.548;8.778;2023-07-22T10:58:29;5.7;;;3.9;;
51491;SDS011;37569;50.548;8.778;2023-07-22T11:03:30;5.5;;;4.4;;
51491;SDS011;37569;50.548;8.778;2023-07-22T11:08:35;4.1;;;3.7;;
51491;SDS011;37569;50.548;8.778;2023-07-22T11:13:34;6.2;;;4.3;;
51491;SDS011;37569;50.548;8.778;2023-07-22T11:18:35;6.1;;;4.4;;
51491;SDS011;37569;50.548;8.778;2023-07-22T11:23:35;5.5;;;4.3;;
51491;SDS011;37569;50.548;8.778;2023-07-22T11:28:36;4.5;;;4;;
51491;SDS011;37569;50.548;8.778;2023-07-22T11:33:37;4.8;;;4.3;;
51491;SDS011;37569;50.548;8.778;2023-07-22T11:38:38;5.3;;;3.9;;
51491;SDS011;37569;50.548;8.778;2023-07-22T11:43:39;5.3;;;3.9;;
51491;SDS011;37569;50.548;8.778;2023-07-22T11:48:48;4.7;;;4.2;;
51491;SDS011;37569;50.548;8.778;2023-07-22T11:53:41;4.8;;;3.9;;
51491;SDS011;37569;50.548;8.778;2023-07-22T11:58:42;6.3;;;4.1;;
51491;SDS011;37569;50.548;8.778;2023-07-22T12:03:44;6.1;;;3.9;;
51491;SDS011;37569;50.548;8.778;2023-07-22T12:08:45;5.6;;;4.2;;
51491;SDS011;37569;50.548;8.778;2023-07-22T12:13:46;6.7;;;3.9;;
51491;SDS011;37569;50.548;8.778;2023-07-22T12:18:47;7.8;;;3.9;;
51491;SDS011;37569;50.548;8.778;2023-07-22T12:23:48;5.4;;;4;;
51491;SDS011;37569;50.548;8.778;2023-07-22T12:28:49;5.9;;;4.1;;
51491;SDS011;37569;50.548;8.778;2023-07-22T12:33:50;4.3;;;3.7;;
51491;SDS011;37569;50.548;8.778;2023-07-22T12:38:51;4.6;;;3.8;;
51491;SDS011;37569;50.548;8.778;2023-07-22T12:43:53;4;;;3.2;;
51491;SDS011;37569;50.548;8.778;2023-07-22T12:48:54;4.2;;;3.6;;
51491;SDS011;37569;50.548;8.778;2023-07-22T12:53:55;5.3;;;3.9;;
51491;SDS011;37569;50.548;8.778;2023-07-22T12:58:56;5.3;;;3.4;;
51491;SDS011;37569;50.548;8.778;2023-07-22T13:03:57;5.4;;;3.4;;
51491;SDS011;37569;50.548;8.778;2023-07-22T13:08:58;4;;;3.5;;
51491;SDS011;37569;50.548;8.778;2023-07-22T13:13:59;4.8;;;3.8;;
51491;SDS011;37569;50.548;8.778;2023-07-22T13:19:00;5.7;;;3.6;;
51491;SDS011;37569;50.548;8.778;2023-07-22T13:24:02;4.9;;;3.5;;
51491;SDS011;37569;50.548;8.778;2023-07-22T13:29:03;4.9;;;3.6;;
51491;SDS011;37569;50.548;8.778;2023-07-22T13:34:04;3.6;;;3.3;;
51491;SDS011;37569;50.548;8.778;2023-07-22T13:39:05;5.4;;;3.7;;
51491;SDS011;37569;50.548;8.778;2023-07-22T13:44:06;6.1;;;4.8;;
51491;SDS011;37569;50.548;8.778;2023-07-22T13:49:07;5.3;;;3.8;;
51491;SDS011;37569;50.548;8.778;2023-07-22T13:54:09;4.3;;;3.8;;
51491;SDS011;37569;50.548;8.778;2023-07-22T13:59:10;7;;;3.7;;
51491;SDS011;37569;50.548;8.778;2023-07-22T14:04:11;5.3;;;3.7;;
51491;SDS011;37569;50.548;8.778;2023-07-22T14:09:12;5.8;;;3.8;;
51491;SDS011;37569;50.548;8.778;2023-07-22T14:14:13;6.4;;;3.8;;
51491;SDS011;37569;50.548;8.778;2023-07-22T14:19:14;5.5;;;4;;
51491;SDS011;37569;50.548;8.778;2023-07-22T14:24:16;4.4;;;3.9;;
51491;SDS011;37569;50.548;8.778;2023-07-22T14:29:17;6.6;;;4;;
51491;SDS011;37569;50.548;8.778;2023-07-22T14:34:18;4.8;;;3.8;;
51491;SDS011;37569;50.548;8.778;2023-07-22T14:39:19;4.7;;;4.1;;
51491;SDS011;37569;50.548;8.778;2023-07-22T14:44:20;5.4;;;4.1;;
51491;SDS011;37569;50.548;8.778;2023-07-22T14:49:22;5.8;;;3.9;;
51491;SDS011;37569;50.548;8.778;2023-07-22T14:54:23;10.2;;;3.9;;
51491;SDS011;37569;50.548;8.778;2023-07-22T14:59:24;4.9;;;4;;
51491;SDS011;37569;50.548;8.778;2023-07-22T15:04:25;5.1;;;4.2;;
51491;SDS011;37569;50.548;8.778;2023-07-22T15:09:26;6.7;;;4.1;;
51491;SDS011;37569;50.548;8.778;2023-07-22T15:14:27;5.1;;;3.9;;
51491;SDS011;37569;50.548;8.778;2023-07-22T15:19:29;6.1;;;4.1;;
51491;SDS011;37569;50.548;8.778;2023-07-22T15:24:30;4.7;;;4;;
51491;SDS011;37569;50.548;8.778;2023-07-22T15:29:31;6.4;;;4.4;;
51491;SDS011;37569;50.548;8.778;2023-07-22T15:34:32;5.5;;;4.2;;
51491;SDS011;37569;50.548;8.778;2023-07-22T15:39:33;5.2;;;4.3;;
51491;SDS011;37569;50.548;8.778;2023-07-22T15:44:34;6.6;;;4.5;;
51491;SDS011;37569;50.548;8.778;2023-07-22T15:49:36;6;;;4.5;;
51491;SDS011;37569;50.548;8.778;2023-07-22T15:54:37;5.5;;;4.3;;
51491;SDS011;37569;50.548;8.778;2023-07-22T15:59:38;5.7;;;4.5;;
51491;SDS011;37569;50.548;8.778;2023-07-22T16:04:39;4.9;;;4.4;;
51491;SDS011;37569;50.548;8.778;2023-07-22T16:09:40;7.4;;;4.4;;
51491;SDS011;37569;50.548;8.778;2023-07-22T16:14:41;7.2;;;4.8;;
51491;SDS011;37569;50.548;8.778;2023-07-22T16:19:43;6.3;;;4.5;;
51491;SDS011;37569;50.548;8.778;2023-07-22T16:24:44;7;;;4.5;;
51491;SDS011;37569;50.548;8.778;2023-07-22T16:29:45;5.4;;;4.5;;
51491;SDS011;37569;50.548;8.778;2023-07-22T16:34:46;6;;;4.5;;
51491;SDS011;37569;50.548;8.778;2023-07-22T16:39:47;5.1;;;4.3;;
51491;SDS011;37569;50.548;8.778;2023-07-22T16:44:49;4.9;;;4.2;;
51491;SDS011;37569;50.548;8.778;2023-07-22T16:49:50;5.1;;;4.3;;
51491;SDS011;37569;50.548;8.778;2023-07-22T16:54:51;6.4;;;4.4;;
51491;SDS011;37569;50.548;8.778;2023-07-22T16:59:52;5.1;;;4.1;;
51491;SDS011;37569;50.548;8.778;2023-07-22T17:04:53;5.7;;;4.2;;
51491;SDS011;37569;50.548;8.778;2023-07-22T17:09:54;6.2;;;4.3;;
51491;SDS011;37569;50.548;8.778;2023-07-22T17:14:56;6.2;;;4;;
51491;SDS011;37569;50.548;8.778;2023-07-22T17:19:57;5.2;;;3.8;;
51491;SDS011;37569;50.548;8.778;2023-07-22T17:24:58;4.7;;;3.9;;
51491;SDS011;37569;50.548;8.778;2023-07-22T17:29:59;5.4;;;4;;
51491;SDS011;37569;50.548;8.778;2023-07-22T17:35:00;5.4;;;3.7;;
51491;SDS011;37569;50.548;8.778;2023-07-22T17:40:01;5.2;;;4.2;;
51491;SDS011;37569;50.548;8.778;2023-07-22T17:45:03;6;;;4.1;;
51491;SDS011;37569;50.548;8.778;2023-07-22T17:50:04;6.6;;;4.3;;
51491;SDS011;37569;50.548;8.778;2023-07-22T17:55:05;4.7;;;4.1;;
51491;SDS011;37569;50.548;8.778;2023-07-22T18:00:06;6.7;;;4.3;;
51491;SDS011;37569;50.548;8.778;2023-07-22T18:05:07;5.2;;;3.9;;
51491;SDS011;37569;50.548;8.778;2023-07-22T18:10:08;5;;;3.7;;
51491;SDS011;37569;50.548;8.778;2023-07-22T18:15:09;5;;;3.7;;
51491;SDS011;37569;50.548;8.778;2023-07-22T18:20:10;5.8;;;3.9;;
51491;SDS011;37569;50.548;8.778;2023-07-22T18:25:11;7;;;4.2;;
51491;SDS011;37569;50.548;8.778;2023-07-22T18:30:12;5.7;;;4.1;;
51491;SDS011;37569;50.548;8.778;2023-07-22T18:35:13;6.4;;;3.7;;
51491;SDS011;37569;50.548;8.778;2023-07-22T18:40:14;5.3;;;4;;
51491;SDS011;37569;50.548;8.778;2023-07-22T18:45:16;5.2;;;4.2;;
51491;SDS011;37569;50.548;8.778;2023-07-22T18:50:17;5.3;;;3.9;;
51491;SDS011;37569;50.548;8.778;2023-07-22T18:55:18;7.1;;;4.4;;
51491;SDS011;37569;50.548;8.778;2023-07-22T19:00:19;5.6;;;4.3;;
51491;SDS011;37569;50.548;8.778;2023-07-22T19:05:20;5.1;;;4;;
51491;SDS011;37569;50.548;8.778;2023-07-22T19:10:21;5.4;;;4.2;;
51491;SDS011;37569;50.548;8.778;2023-07-22T19:15:22;6.2;;;4.5;;
51491;SDS011;37569;50.548;8.778;2023-07-22T19:20:23;6;;;4.4;;
51491;SDS011;37569;50.548;8.778;2023-07-22T19:25:24;7;;;4.1;;
51491;SDS011;37569;50.548;8.778;2023-07-22T19:30:25;6;;;4.3;;
51491;SDS011;37569;50.548;8.778;2023-07-22T19:35:26;5.9;;;4.4;;
51491;SDS011;37569;50.548;8.778;2023-07-22T19:40:27;6.2;;;4.4;;
51491;SDS011;37569;50.548;8.778;2023-07-22T19:45:28;5.8;;;4.6;;
51491;SDS011;37569;50.548;8.778;2023-07-22T19:50:29;9;;;4.3;;
51491;SDS011;37569;50.548;8.778;2023-07-22T19:55:29;7.6;;;5;;
51491;SDS011;37569;50.548;8.778;2023-07-22T20:00:30;7.6;;;4.3;;
51491;SDS011;37569;50.548;8.778;2023-07-22T20:05:31;8.7;;;5.2;;
51491;SDS011;37569;50.548;8.778;2023-07-22T20:10:32;8;;;4.7;;
51491;SDS011;37569;50.548;8.778;2023-07-22T20:15:33;8.4;;;5.1;;
51491;SDS011;37569;50.548;8.778;2023-07-22T20:20:34;8;;;4.6;;
51491;SDS011;37569;50.548;8.778;2023-07-22T20:25:35;7.6;;;4.8;;
51491;SDS011;37569;50.548;8.778;2023-07-22T20:30:36;7.9;;;4.9;;
51491;SDS011;37569;50.548;8.778;2023-07-22T20:35:37;8;;;5.4;;
51491;SDS011;37569;50.548;8.778;2023-07-22T20:40:38;7.6;;;5.1;;
51491;SDS011;37569;50.548;8.778;2023-07-22T20:45:39;7.6;;;5;;
51491;SDS011;37569;50.548;8.778;2023-07-22T20:50:39;8.3;;;5.1;;
51491;SDS011;37569;50.548;8.778;2023-07-22T20:55:41;9.5;;;5.6;;
51491;SDS011;37569;50.548;8.778;2023-07-22T21:00:41;8.5;;;5.1;;
51491;SDS011;37569;50.548;8.778;2023-07-22T21:05:42;6.9;;;5;;
51491;SDS011;37569;50.548;8.778;2023-07-22T21:10:43;6.9;;;4.8;;
51491;SDS011;37569;50.548;8.778;2023-07-22T21:15:44;6.4;;;5.3;;
51491;SDS011;37569;50.548;8.778;2023-07-22T21:20:45;6.5;;;5.2;;
51491;SDS011;37569;50.548;8.778;2023-07-22T21:25:46;6.6;;;4.6;;
51491;SDS011;37569;50.548;8.778;2023-07-22T21:30:47;8;;;5.7;;
51491;SDS011;37569;50.548;8.778;2023-07-22T21:35:47;7.7;;;5.1;;
51491;SDS011;37569;50.548;8.778;2023-07-22T21:40:49;6.3;;;4.9;;
51491;SDS011;37569;50.548;8.778;2023-07-22T21:45:49;7.7;;;5;;
51491;SDS011;37569;50.548;8.778;2023-07-22T21:50:50;8.3;;;5.3;;
51491;SDS011;37569;50.548;8.778;2023-07-22T21:55:51;7.8;;;5.3;;
51491;SDS011;37569;50.548;8.778;2023-07-22T22:00:52;7.5;;;5.3;;
51491;SDS011;37569;50.548;8.778;2023-07-22T22:05:56;6.1;;;4.9;;
51491;SDS011;37569;50.548;8.778;2023-07-22T22:10:54;6.8;;;4.7;;
51491;SDS011;37569;50.548;8.778;2023-07-22T22:15:55;7.9;;;4.7;;
51491;SDS011;37569;50.548;8.778;2023-07-22T22:20:55;7.3;;;5;;
51491;SDS011;37569;50.548;8.778;2023-07-22T22:25:56;8.4;;;5.1;;
51491;SDS011;37569;50.548;8.778;2023-07-22T22:30:58;8;;;4.8;;
51491;SDS011;37569;50.548;8.778;2023-07-22T22:35:58;6.8;;;4.8;;
51491;SDS011;37569;50.548;8.778;2023-07-22T22:40:59;5.3;;;4.6;;
51491;SDS011;37569;50.548;8.778;2023-07-22T22:45:59;7.9;;;4.8;;
51491;SDS011;37569;50.548;8.778;2023-07-22T22:51:00;6.3;;;4.2;;
51491;SDS011;37569;50.548;8.778;2023-07-22T22:56:02;6.7;;;4.9;;
51491;SDS011;37569;50.548;8.778;2023-07-22T23:01:02;6.3;;;4.6;;
51491;SDS011;37569;50.548;8.778;2023-07-22T23:06:09;7.3;;;4.4;;
51491;SDS011;37569;50.548;8.778;2023-07-22T23:11:06;7.3;;;4.6;;
51491;SDS011;37569;50.548;8.778;2023-07-22T23:16:04;6.3;;;4.5;;
51491;SDS011;37569;50.548;8.778;2023-07-22T23:21:05;6.2;;;4.4;;
51491;SDS011;37569;50.548;8.778;2023-07-22T23:26:06;7.7;;;5.4;;
51491;SDS011;37569;50.548;8.778;2023-07-22T23:31:07;6.6;;;5.2;;
51491;SDS011;37569;50.548;8.778;2023-07-22T23:36:07;7.5;;;5.3;;
51491;SDS011;37569;50.548;8.778;2023-07-22T23:41:08;7.6;;;4.9;;
51491;SDS011;37569;50.548;8.778;2023-07-22T23:46:09;6.3;;;4.7;;
51491;SDS011;37569;50.548;8.778;2023-07-22T23:51:10;6.9;;;4.8;;
51491;SDS011;37569;50.548;8.778;2023-07-22T23:56:10;7.3;;;5;;
